sensor_id;sensor_type;location;lat;lon;timestamp;pressure;altitude;pressure_sealevel;temperature;humidity
23341;BME280;12239;53.404;23.492;2024-03-02T00:01:39;77521.02;;;-147.78;100.00
23341;BME280;12239;53.404;23.492;2024-03-02T00:04:08;77517.73;;;-147.78;100.00
23341;BME280;12239;53.404;23.492;2024-03-02T00:06:39;77521.42;;;-147.78;100.00
23341;BME280;12239;53.404;23.492;2024-03-02T00:09:08;77524.71;;;-147.78;100.00
23341;BME280;12239;53.404;23.492;2024-03-02T00:11:39;77522.66;;;-147.78;100.00
23341;BME280;12239;53.404;23.492;2024-03-02T00:14:09;77522.24;;;-147.78;100.00
23341;BME280;12239;53.404;23.492;2024-03-02T00:16:38;77518.14;;;-147.78;100.00
23341;BME280;12239;53.404;23.492;2024-03-02T00:19:08;77518.55;;;-147.78;100.00
23341;BME280;12239;53.404;23.492;2024-03-02T00:21:38;77522.66;;;-147.78;100.00
23341;BME280;12239;53.404;23.492;2024-03-02T00:24:12;77522.65;;;-147.78;100.00
23341;BME280;12239;53.404;23.492;2024-03-02T00:26:47;77518.96;;;-147.78;100.00
23341;BME280;12239;53.404;23.492;2024-03-02T00:29:17;77518.14;;;-147.78;100.00
23341;BME280;12239;53.404;23.492;2024-03-02T00:31:50;77515.69;;;-147.78;100.00
23341;BME280;12239;53.404;23.492;2024-03-02T00:34:21;77515.27;;;-147.78;100.00
23341;BME280;12239;53.404;23.492;2024-03-02T00:36:50;77508.30;;;-147.78;100.00
23341;BME280;12239;53.404;23.492;2024-03-02T00:39:23;77502.15;;;-147.78;100.00
23341;BME280;12239;53.404;23.492;2024-03-02T00:41:53;77511.98;;;-147.78;100.00
23341;BME280;12239;53.404;23.492;2024-03-02T00:44:23;77515.69;;;-147.78;100.00
23341;BME280;12239;53.404;23.492;2024-03-02T00:46:56;77514.86;;;-147.78;100.00
23341;BME280;12239;53.404;23.492;2024-03-02T00:49:28;77521.02;;;-147.78;100.00
23341;BME280;12239;53.404;23.492;2024-03-02T00:51:57;77525.13;;;-147.78;100.00
23341;BME280;12239;53.404;23.492;2024-03-02T00:54:28;77527.17;;;-147.78;100.00
23341;BME280;12239;53.404;23.492;2024-03-02T00:56:58;77519.77;;;-147.78;100.00
23341;BME280;12239;53.404;23.492;2024-03-02T00:59:28;77521.02;;;-147.78;100.00
23341;BME280;12239;53.404;23.492;2024-03-02T01:01:58;77530.04;;;-147.78;100.00
23341;BME280;12239;53.404;23.492;2024-03-02T01:04:27;77536.20;;;-147.78;100.00
23341;BME280;12239;53.404;23.492;2024-03-02T01:06:56;77545.21;;;-147.78;100.00
23341;BME280;12239;53.404;23.492;2024-03-02T01:09:26;77552.19;;;-147.78;100.00
23341;BME280;12239;53.404;23.492;2024-03-02T01:11:56;77556.70;;;-147.78;100.00
23341;BME280;12239;53.404;23.492;2024-03-02T01:14:25;77563.27;;;-147.78;100.00
23341;BME280;12239;53.404;23.492;2024-03-02T01:16:55;77564.48;;;-147.78;100.00
23341;BME280;12239;53.404;23.492;2024-03-02T01:19:24;77570.23;;;-147.78;100.00
23341;BME280;12239;53.404;23.492;2024-03-02T01:21:54;77570.23;;;-147.78;100.00
23341;BME280;12239;53.404;23.492;2024-03-02T01:24:24;77577.61;;;-147.78;100.00
23341;BME280;12239;53.404;23.492;2024-03-02T01:26:53;77576.79;;;-147.78;100.00
23341;BME280;12239;53.404;23.492;2024-03-02T01:29:23;77580.07;;;-147.78;100.00
23341;BME280;12239;53.404;23.492;2024-03-02T01:31:53;77577.20;;;-147.78;100.00
23341;BME280;12239;53.404;23.492;2024-03-02T01:34:22;77574.73;;;-147.78;100.00
23341;BME280;12239;53.404;23.492;2024-03-02T01:36:53;77572.69;;;-147.78;100.00
23341;BME280;12239;53.404;23.492;2024-03-02T01:39:22;77571.05;;;-147.78;100.00
23341;BME280;12239;53.404;23.492;2024-03-02T01:41:51;77570.23;;;-147.78;100.00
23341;BME280;12239;53.404;23.492;2024-03-02T01:44:21;77566.13;;;-147.78;100.00
23341;BME280;12239;53.404;23.492;2024-03-02T01:46:50;77565.71;;;-147.78;100.00
23341;BME280;12239;53.404;23.492;2024-03-02T01:49:20;77571.05;;;-147.78;100.00
23341;BME280;12239;53.404;23.492;2024-03-02T01:51:50;77567.35;;;-147.78;100.00
23341;BME280;12239;53.404;23.492;2024-03-02T01:54:19;77564.48;;;-147.78;100.00
23341;BME280;12239;53.404;23.492;2024-03-02T01:56:49;77570.23;;;-147.78;100.00
23341;BME280;12239;53.404;23.492;2024-03-02T01:59:18;77575.55;;;-147.78;100.00
23341;BME280;12239;53.404;23.492;2024-03-02T02:01:48;77580.08;;;-147.78;100.00
23341;BME280;12239;53.404;23.492;2024-03-02T02:04:17;77578.84;;;-147.78;100.00
23341;BME280;12239;53.404;23.492;2024-03-02T02:06:49;77574.33;;;-147.78;100.00
23341;BME280;12239;53.404;23.492;2024-03-02T02:09:19;77574.73;;;-147.78;100.00
23341;BME280;12239;53.404;23.492;2024-03-02T02:11:48;77578.02;;;-147.78;100.00
23341;BME280;12239;53.404;23.492;2024-03-02T02:14:19;77578.02;;;-147.78;100.00
23341;BME280;12239;53.404;23.492;2024-03-02T02:16:49;77580.48;;;-147.78;100.00
23341;BME280;12239;53.404;23.492;2024-03-02T02:19:18;77589.50;;;-147.78;100.00
23341;BME280;12239;53.404;23.492;2024-03-02T02:21:48;77592.38;;;-147.78;100.00
23341;BME280;12239;53.404;23.492;2024-03-02T02:24:17;77594.42;;;-147.78;100.00
23341;BME280;12239;53.404;23.492;2024-03-02T02:26:47;77596.06;;;-147.78;100.00
23341;BME280;12239;53.404;23.492;2024-03-02T02:29:16;77593.61;;;-147.78;100.00
23341;BME280;12239;53.404;23.492;2024-03-02T02:31:45;77596.89;;;-147.78;100.00
23341;BME280;12239;53.404;23.492;2024-03-02T02:34:15;77594.02;;;-147.78;100.00
23341;BME280;12239;53.404;23.492;2024-03-02T02:36:44;77588.69;;;-147.78;100.00
23341;BME280;12239;53.404;23.492;2024-03-02T02:39:18;77589.09;;;-147.78;100.00
23341;BME280;12239;53.404;23.492;2024-03-02T02:41:49;77597.30;;;-147.78;100.00
23341;BME280;12239;53.404;23.492;2024-03-02T02:44:18;77595.66;;;-147.78;100.00
23341;BME280;12239;53.404;23.492;2024-03-02T02:46:48;77600.58;;;-147.78;100.00
23341;BME280;12239;53.404;23.492;2024-03-02T02:49:17;77596.89;;;-147.78;100.00
23341;BME280;12239;53.404;23.492;2024-03-02T02:51:46;77599.34;;;-147.78;100.00
23341;BME280;12239;53.404;23.492;2024-03-02T02:54:16;77596.48;;;-147.78;100.00
23341;BME280;12239;53.404;23.492;2024-03-02T02:56:45;77594.42;;;-147.78;100.00
23341;BME280;12239;53.404;23.492;2024-03-02T02:59:15;77592.38;;;-147.78;100.00
23341;BME280;12239;53.404;23.492;2024-03-02T03:01:44;77586.63;;;-147.78;100.00
23341;BME280;12239;53.404;23.492;2024-03-02T03:04:13;77588.68;;;-147.78;100.00
23341;BME280;12239;53.404;23.492;2024-03-02T03:06:43;77590.73;;;-147.78;100.00
23341;BME280;12239;53.404;23.492;2024-03-02T03:09:14;77590.33;;;-147.78;100.00
23341;BME280;12239;53.404;23.492;2024-03-02T03:11:43;77584.58;;;-147.78;100.00
23341;BME280;12239;53.404;23.492;2024-03-02T03:14:13;77588.27;;;-147.78;100.00
23341;BME280;12239;53.404;23.492;2024-03-02T03:16:43;77585.40;;;-147.78;100.00
23341;BME280;12239;53.404;23.492;2024-03-02T03:19:16;77577.61;;;-147.78;100.00
23341;BME280;12239;53.404;23.492;2024-03-02T03:21:46;77576.80;;;-147.78;100.00
23341;BME280;12239;53.404;23.492;2024-03-02T03:24:15;77573.92;;;-147.78;100.00
23341;BME280;12239;53.404;23.492;2024-03-02T03:26:45;77575.15;;;-147.78;100.00
23341;BME280;12239;53.404;23.492;2024-03-02T03:29:14;77575.97;;;-147.78;100.00
23341;BME280;12239;53.404;23.492;2024-03-02T03:31:43;77574.33;;;-147.78;100.00
23341;BME280;12239;53.404;23.492;2024-03-02T03:34:13;77566.95;;;-147.78;100.00
23341;BME280;12239;53.404;23.492;2024-03-02T03:36:43;77567.77;;;-147.78;100.00
23341;BME280;12239;53.404;23.492;2024-03-02T03:39:13;77566.13;;;-147.78;100.00
23341;BME280;12239;53.404;23.492;2024-03-02T03:41:43;77570.64;;;-147.78;100.00
23341;BME280;12239;53.404;23.492;2024-03-02T03:44:12;77568.59;;;-147.78;100.00
23341;BME280;12239;53.404;23.492;2024-03-02T03:46:41;77564.08;;;-147.78;100.00
23341;BME280;12239;53.404;23.492;2024-03-02T03:49:11;77566.13;;;-147.78;100.00
23341;BME280;12239;53.404;23.492;2024-03-02T03:51:40;77566.13;;;-147.78;100.00
23341;BME280;12239;53.404;23.492;2024-03-02T03:54:09;77564.90;;;-147.78;100.00
23341;BME280;12239;53.404;23.492;2024-03-02T03:56:39;77565.31;;;-147.78;100.00
23341;BME280;12239;53.404;23.492;2024-03-02T03:59:09;77567.36;;;-147.78;100.00
23341;BME280;12239;53.404;23.492;2024-03-02T04:01:38;77573.10;;;-147.78;100.00
23341;BME280;12239;53.404;23.492;2024-03-02T04:04:08;77574.73;;;-147.78;100.00
23341;BME280;12239;53.404;23.492;2024-03-02T04:06:37;77576.79;;;-147.78;100.00
23341;BME280;12239;53.404;23.492;2024-03-02T04:09:07;77573.10;;;-147.78;100.00
23341;BME280;12239;53.404;23.492;2024-03-02T04:11:36;77574.33;;;-147.78;100.00
23341;BME280;12239;53.404;23.492;2024-03-02T04:14:06;77575.15;;;-147.78;100.00
23341;BME280;12239;53.404;23.492;2024-03-02T04:16:35;77575.96;;;-147.78;100.00
23341;BME280;12239;53.404;23.492;2024-03-02T04:19:05;77577.20;;;-147.78;100.00
23341;BME280;12239;53.404;23.492;2024-03-02T04:21:34;77581.30;;;-147.78;100.00
23341;BME280;12239;53.404;23.492;2024-03-02T04:24:04;77584.58;;;-147.78;100.00
23341;BME280;12239;53.404;23.492;2024-03-02T04:26:34;77589.09;;;-147.78;100.00
23341;BME280;12239;53.404;23.492;2024-03-02T04:29:03;77590.73;;;-147.78;100.00
23341;BME280;12239;53.404;23.492;2024-03-02T04:31:33;77588.27;;;-147.78;100.00
23341;BME280;12239;53.404;23.492;2024-03-02T04:34:02;77584.58;;;-147.78;100.00
23341;BME280;12239;53.404;23.492;2024-03-02T04:36:32;77589.51;;;-147.78;100.00
23341;BME280;12239;53.404;23.492;2024-03-02T04:39:01;77587.04;;;-147.78;100.00
23341;BME280;12239;53.404;23.492;2024-03-02T04:41:31;77587.45;;;-147.78;100.00
23341;BME280;12239;53.404;23.492;2024-03-02T04:44:00;77587.86;;;-147.78;100.00
23341;BME280;12239;53.404;23.492;2024-03-02T04:46:30;77589.92;;;-147.78;100.00
23341;BME280;12239;53.404;23.492;2024-03-02T04:49:00;77595.24;;;-147.78;100.00
23341;BME280;12239;53.404;23.492;2024-03-02T04:51:29;77594.84;;;-147.78;100.00
23341;BME280;12239;53.404;23.492;2024-03-02T04:53:59;77591.55;;;-147.78;100.00
23341;BME280;12239;53.404;23.492;2024-03-02T04:56:28;77596.07;;;-147.78;100.00
23341;BME280;12239;53.404;23.492;2024-03-02T04:59:17;77600.16;;;-147.78;100.00
23341;BME280;12239;53.404;23.492;2024-03-02T05:01:47;77595.66;;;-147.78;100.00
23341;BME280;12239;53.404;23.492;2024-03-02T05:04:17;77591.96;;;-147.78;100.00
23341;BME280;12239;53.404;23.492;2024-03-02T05:06:46;77588.69;;;-147.78;100.00
23341;BME280;12239;53.404;23.492;2024-03-02T05:09:20;77587.86;;;-147.78;100.00
23341;BME280;12239;53.404;23.492;2024-03-02T05:11:50;77583.76;;;-147.78;100.00
23341;BME280;12239;53.404;23.492;2024-03-02T05:14:38;77575.97;;;-147.78;100.00
23341;BME280;12239;53.404;23.492;2024-03-02T05:17:07;77576.79;;;-147.78;100.00
23341;BME280;12239;53.404;23.492;2024-03-02T05:19:37;77573.92;;;-147.78;100.00
23341;BME280;12239;53.404;23.492;2024-03-02T05:22:06;77566.54;;;-147.78;100.00
23341;BME280;12239;53.404;23.492;2024-03-02T05:24:36;77561.61;;;-147.78;100.00
23341;BME280;12239;53.404;23.492;2024-03-02T05:27:05;77560.80;;;-147.78;100.00
23341;BME280;12239;53.404;23.492;2024-03-02T05:29:35;77564.90;;;-147.78;100.00
23341;BME280;12239;53.404;23.492;2024-03-02T05:32:05;77569.82;;;-147.78;100.00
23341;BME280;12239;53.404;23.492;2024-03-02T05:34:34;77572.69;;;-147.78;100.00
23341;BME280;12239;53.404;23.492;2024-03-02T05:37:04;77573.92;;;-147.78;100.00
23341;BME280;12239;53.404;23.492;2024-03-02T05:39:33;77573.52;;;-147.78;100.00
23341;BME280;12239;53.404;23.492;2024-03-02T05:42:03;77574.73;;;-147.78;100.00
23341;BME280;12239;53.404;23.492;2024-03-02T05:44:32;77583.36;;;-147.78;100.00
23341;BME280;12239;53.404;23.492;2024-03-02T05:47:02;77587.45;;;-147.78;100.00
23341;BME280;12239;53.404;23.492;2024-03-02T05:49:32;77588.27;;;-147.78;100.00
23341;BME280;12239;53.404;23.492;2024-03-02T05:52:01;77588.69;;;-147.78;100.00
23341;BME280;12239;53.404;23.492;2024-03-02T05:54:31;77587.86;;;-147.78;100.00
23341;BME280;12239;53.404;23.492;2024-03-02T05:57:00;77588.68;;;-147.78;100.00
23341;BME280;12239;53.404;23.492;2024-03-02T05:59:45;77585.81;;;-147.78;100.00
23341;BME280;12239;53.404;23.492;2024-03-02T06:02:14;77584.58;;;-147.78;100.00
23341;BME280;12239;53.404;23.492;2024-03-02T06:04:44;77580.08;;;-147.78;100.00
23341;BME280;12239;53.404;23.492;2024-03-02T06:07:13;77582.13;;;-147.78;100.00
23341;BME280;12239;53.404;23.492;2024-03-02T06:09:43;77584.98;;;-147.78;100.00
23341;BME280;12239;53.404;23.492;2024-03-02T06:12:13;77586.22;;;-147.78;100.00
23341;BME280;12239;53.404;23.492;2024-03-02T06:14:42;77585.41;;;-147.78;100.00
23341;BME280;12239;53.404;23.492;2024-03-02T06:17:12;77588.69;;;-147.78;100.00
23341;BME280;12239;53.404;23.492;2024-03-02T06:19:41;77582.95;;;-147.78;100.00
23341;BME280;12239;53.404;23.492;2024-03-02T06:22:11;77580.48;;;-147.78;100.00
23341;BME280;12239;53.404;23.492;2024-03-02T06:24:40;77578.02;;;-147.78;100.00
23341;BME280;12239;53.404;23.492;2024-03-02T06:27:10;77573.51;;;-147.78;100.00
23341;BME280;12239;53.404;23.492;2024-03-02T06:29:39;77573.92;;;-147.78;100.00
23341;BME280;12239;53.404;23.492;2024-03-02T06:32:09;77568.17;;;-147.78;100.00
23341;BME280;12239;53.404;23.492;2024-03-02T06:34:38;77563.26;;;-147.78;100.00
23341;BME280;12239;53.404;23.492;2024-03-02T06:37:07;77560.80;;;-147.78;100.00
23341;BME280;12239;53.404;23.492;2024-03-02T06:39:37;77558.74;;;-147.78;100.00
23341;BME280;12239;53.404;23.492;2024-03-02T06:42:07;77558.75;;;-147.78;100.00
23341;BME280;12239;53.404;23.492;2024-03-02T06:44:36;77552.59;;;-147.78;100.00
23341;BME280;12239;53.404;23.492;2024-03-02T06:47:06;77550.55;;;-147.78;100.00
23341;BME280;12239;53.404;23.492;2024-03-02T06:49:35;77542.75;;;-147.78;100.00
23341;BME280;12239;53.404;23.492;2024-03-02T06:52:05;77538.23;;;-147.78;100.00
23341;BME280;12239;53.404;23.492;2024-03-02T06:54:34;77536.60;;;-147.78;100.00
23341;BME280;12239;53.404;23.492;2024-03-02T06:57:06;77539.48;;;-147.78;100.00
23341;BME280;12239;53.404;23.492;2024-03-02T06:59:36;77535.79;;;-147.78;100.00
23341;BME280;12239;53.404;23.492;2024-03-02T07:02:05;77539.06;;;-147.78;100.00
23341;BME280;12239;53.404;23.492;2024-03-02T07:04:36;77537.83;;;-147.78;100.00
23341;BME280;12239;53.404;23.492;2024-03-02T07:07:05;77534.14;;;-147.78;100.00
23341;BME280;12239;53.404;23.492;2024-03-02T07:09:35;77538.65;;;-147.78;100.00
23341;BME280;12239;53.404;23.492;2024-03-02T07:12:04;77539.88;;;-147.78;100.00
23341;BME280;12239;53.404;23.492;2024-03-02T07:14:37;77542.34;;;-147.78;100.00
23341;BME280;12239;53.404;23.492;2024-03-02T07:17:20;77545.63;;;-147.78;100.00
23341;BME280;12239;53.404;23.492;2024-03-02T07:19:50;77540.29;;;-147.78;100.00
23341;BME280;12239;53.404;23.492;2024-03-02T07:22:19;77532.91;;;-147.78;100.00
23341;BME280;12239;53.404;23.492;2024-03-02T07:24:48;77528.40;;;-147.78;100.00
23341;BME280;12239;53.404;23.492;2024-03-02T07:27:18;77516.91;;;-147.78;100.00
23341;BME280;12239;53.404;23.492;2024-03-02T07:29:47;77513.23;;;-147.78;100.00
23341;BME280;12239;53.404;23.492;2024-03-02T07:32:17;77504.61;;;-147.78;100.00
23341;BME280;12239;53.404;23.492;2024-03-02T07:34:46;77498.05;;;-147.78;100.00
23341;BME280;12239;53.404;23.492;2024-03-02T07:37:16;77484.52;;;-147.78;100.00
23341;BME280;12239;53.404;23.492;2024-03-02T07:39:46;77479.19;;;-147.78;100.00
23341;BME280;12239;53.404;23.492;2024-03-02T07:42:15;77476.33;;;-147.78;100.00
23341;BME280;12239;53.404;23.492;2024-03-02T07:44:45;77469.76;;;-147.78;100.00
23341;BME280;12239;53.404;23.492;2024-03-02T07:47:14;77454.58;;;-147.78;100.00
23341;BME280;12239;53.404;23.492;2024-03-02T07:49:45;77450.89;;;-147.78;100.00
23341;BME280;12239;53.404;23.492;2024-03-02T07:52:15;77450.07;;;-147.78;100.00
23341;BME280;12239;53.404;23.492;2024-03-02T07:54:44;77450.48;;;-147.78;100.00
23341;BME280;12239;53.404;23.492;2024-03-02T07:57:14;77450.48;;;-147.78;100.00
23341;BME280;12239;53.404;23.492;2024-03-02T07:59:43;77445.15;;;-147.78;100.00
23341;BME280;12239;53.404;23.492;2024-03-02T08:02:13;77438.99;;;-147.78;100.00
23341;BME280;12239;53.404;23.492;2024-03-02T08:04:42;77431.61;;;-147.78;100.00
23341;BME280;12239;53.404;23.492;2024-03-02T08:07:14;77431.20;;;-147.78;100.00
23341;BME280;12239;53.404;23.492;2024-03-02T08:09:46;77431.20;;;-147.78;100.00
23341;BME280;12239;53.404;23.492;2024-03-02T08:12:15;77432.43;;;-147.78;100.00
23341;BME280;12239;53.404;23.492;2024-03-02T08:14:46;77424.23;;;-147.78;100.00
23341;BME280;12239;53.404;23.492;2024-03-02T08:17:15;77426.70;;;-147.78;100.00
23341;BME280;12239;53.404;23.492;2024-03-02T08:20:07;77431.62;;;-147.78;100.00
23341;BME280;12239;53.404;23.492;2024-03-02T08:22:37;77428.75;;;-147.78;100.00
23341;BME280;12239;53.404;23.492;2024-03-02T08:25:27;77430.39;;;-147.78;100.00
23341;BME280;12239;53.404;23.492;2024-03-02T08:27:56;77435.30;;;-147.78;100.00
23341;BME280;12239;53.404;23.492;2024-03-02T08:30:26;77437.77;;;-147.78;100.00
23341;BME280;12239;53.404;23.492;2024-03-02T08:32:55;77442.69;;;-147.78;100.00
23341;BME280;12239;53.404;23.492;2024-03-02T08:35:25;77446.79;;;-147.78;100.00
23341;BME280;12239;53.404;23.492;2024-03-02T08:37:56;77447.20;;;-147.78;100.00
23341;BME280;12239;53.404;23.492;2024-03-02T08:40:25;77451.71;;;-147.78;100.00
23341;BME280;12239;53.404;23.492;2024-03-02T08:42:55;77442.27;;;-147.78;100.00
23341;BME280;12239;53.404;23.492;2024-03-02T08:45:24;77429.15;;;-147.78;100.00
23341;BME280;12239;53.404;23.492;2024-03-02T08:47:54;77420.95;;;-147.78;100.00
23341;BME280;12239;53.404;23.492;2024-03-02T08:50:23;77414.39;;;-147.78;100.00
23341;BME280;12239;53.404;23.492;2024-03-02T08:52:52;77409.48;;;-147.78;100.00
23341;BME280;12239;53.404;23.492;2024-03-02T08:55:22;77403.33;;;-147.78;100.00
23341;BME280;12239;53.404;23.492;2024-03-02T08:57:51;77405.37;;;-147.78;100.00
23341;BME280;12239;53.404;23.492;2024-03-02T09:00:21;77408.23;;;-147.78;100.00
23341;BME280;12239;53.404;23.492;2024-03-02T09:02:51;77409.48;;;-147.78;100.00
23341;BME280;12239;53.404;23.492;2024-03-02T09:05:20;77408.23;;;-147.78;100.00
23341;BME280;12239;53.404;23.492;2024-03-02T09:07:50;77401.27;;;-147.78;100.00
23341;BME280;12239;53.404;23.492;2024-03-02T09:10:19;77391.42;;;-147.78;100.00
23341;BME280;12239;53.404;23.492;2024-03-02T09:12:48;77379.95;;;-147.78;100.00
23341;BME280;12239;53.404;23.492;2024-03-02T09:15:18;77373.38;;;-147.78;100.00
23341;BME280;12239;53.404;23.492;2024-03-02T09:17:47;77369.69;;;-147.78;100.00
23341;BME280;12239;53.404;23.492;2024-03-02T09:20:17;77366.00;;;-147.78;100.00
23341;BME280;12239;53.404;23.492;2024-03-02T09:22:47;77361.90;;;-147.78;100.00
23341;BME280;12239;53.404;23.492;2024-03-02T09:25:17;77355.34;;;-147.78;100.00
23341;BME280;12239;53.404;23.492;2024-03-02T09:27:46;77350.02;;;-147.78;100.00
23341;BME280;12239;53.404;23.492;2024-03-02T09:30:16;77348.77;;;-147.78;100.00
23341;BME280;12239;53.404;23.492;2024-03-02T09:32:46;77338.94;;;-147.78;100.00
23341;BME280;12239;53.404;23.492;2024-03-02T09:35:15;77326.64;;;-147.78;100.00
23341;BME280;12239;53.404;23.492;2024-03-02T09:38:06;77322.13;;;-147.78;100.00
23341;BME280;12239;53.404;23.492;2024-03-02T09:40:36;77323.77;;;-147.78;100.00
23341;BME280;12239;53.404;23.492;2024-03-02T09:43:05;77324.17;;;-147.78;100.00
23341;BME280;12239;53.404;23.492;2024-03-02T09:45:36;77327.86;;;-147.78;100.00
23341;BME280;12239;53.404;23.492;2024-03-02T09:48:07;77328.68;;;-147.78;100.00
23341;BME280;12239;53.404;23.492;2024-03-02T09:50:36;77326.22;;;-147.78;100.00
23341;BME280;12239;53.404;23.492;2024-03-02T09:53:06;77325.81;;;-147.78;100.00
23341;BME280;12239;53.404;23.492;2024-03-02T09:55:36;77318.42;;;-147.78;100.00
23341;BME280;12239;53.404;23.492;2024-03-02T09:58:07;77322.94;;;-147.78;100.00
23341;BME280;12239;53.404;23.492;2024-03-02T10:00:36;77326.63;;;-147.78;100.00
23341;BME280;12239;53.404;23.492;2024-03-02T10:03:06;77324.98;;;-147.78;100.00
23341;BME280;12239;53.404;23.492;2024-03-02T10:05:40;77323.35;;;-147.78;100.00
23341;BME280;12239;53.404;23.492;2024-03-02T10:08:10;77315.98;;;-147.78;100.00
23341;BME280;12239;53.404;23.492;2024-03-02T10:10:40;77309.82;;;-147.78;100.00
23341;BME280;12239;53.404;23.492;2024-03-02T10:13:11;77312.29;;;-147.78;100.00
23341;BME280;12239;53.404;23.492;2024-03-02T10:15:41;77314.33;;;-147.78;100.00
23341;BME280;12239;53.404;23.492;2024-03-02T10:18:11;77312.69;;;-147.78;100.00
23341;BME280;12239;53.404;23.492;2024-03-02T10:20:41;77306.13;;;-147.78;100.00
23341;BME280;12239;53.404;23.492;2024-03-02T10:23:11;77306.13;;;-147.78;100.00
23341;BME280;12239;53.404;23.492;2024-03-02T10:25:41;77302.44;;;-147.78;100.00
23341;BME280;12239;53.404;23.492;2024-03-02T10:28:11;77294.65;;;-147.78;100.00
23341;BME280;12239;53.404;23.492;2024-03-02T10:30:41;77292.19;;;-147.78;100.00
23341;BME280;12239;53.404;23.492;2024-03-02T10:33:10;77286.45;;;-147.78;100.00
23341;BME280;12239;53.404;23.492;2024-03-02T10:35:43;77284.80;;;-147.78;100.00
23341;BME280;12239;53.404;23.492;2024-03-02T10:38:13;77277.02;;;-147.78;100.00
23341;BME280;12239;53.404;23.492;2024-03-02T10:40:42;77269.63;;;-147.78;100.00
23341;BME280;12239;53.404;23.492;2024-03-02T10:43:16;77261.43;;;-147.78;100.00
23341;BME280;12239;53.404;23.492;2024-03-02T10:45:46;77257.73;;;-147.78;100.00
23341;BME280;12239;53.404;23.492;2024-03-02T10:48:18;77250.36;;;-147.78;100.00
23341;BME280;12239;53.404;23.492;2024-03-02T10:50:49;77244.62;;;-147.78;100.00
23341;BME280;12239;53.404;23.492;2024-03-02T10:53:19;77238.06;;;-147.78;100.00
23341;BME280;12239;53.404;23.492;2024-03-02T10:55:49;77241.34;;;-147.78;100.00
23341;BME280;12239;53.404;23.492;2024-03-02T10:58:23;77243.80;;;-147.78;100.00
23341;BME280;12239;53.404;23.492;2024-03-02T11:00:56;77247.08;;;-147.78;100.00
23341;BME280;12239;53.404;23.492;2024-03-02T11:03:26;77248.31;;;-147.78;100.00
23341;BME280;12239;53.404;23.492;2024-03-02T11:05:56;77247.90;;;-147.78;100.00
23341;BME280;12239;53.404;23.492;2024-03-02T11:08:30;77241.34;;;-147.78;100.00
23341;BME280;12239;53.404;23.492;2024-03-02T11:11:01;77233.55;;;-147.78;100.00
23341;BME280;12239;53.404;23.492;2024-03-02T11:13:33;77220.02;;;-147.78;100.00
23341;BME280;12239;53.404;23.492;2024-03-02T11:16:09;77217.96;;;-147.78;100.00
23341;BME280;12239;53.404;23.492;2024-03-02T11:18:41;77218.37;;;-147.78;100.00
23341;BME280;12239;53.404;23.492;2024-03-02T11:21:14;77219.60;;;-147.78;100.00
23341;BME280;12239;53.404;23.492;2024-03-02T11:23:45;77215.50;;;-147.78;100.00
23341;BME280;12239;53.404;23.492;2024-03-02T11:26:20;77219.20;;;-147.78;100.00
23341;BME280;12239;53.404;23.492;2024-03-02T11:28:51;77217.96;;;-147.78;100.00
23341;BME280;12239;53.404;23.492;2024-03-02T11:31:21;77214.68;;;-147.78;100.00
23341;BME280;12239;53.404;23.492;2024-03-02T11:33:50;77214.69;;;-147.78;100.00
23341;BME280;12239;53.404;23.492;2024-03-02T11:36:20;77217.96;;;-147.78;100.00
23341;BME280;12239;53.404;23.492;2024-03-02T11:38:49;77215.50;;;-147.78;100.00
23341;BME280;12239;53.404;23.492;2024-03-02T11:41:21;77212.63;;;-147.78;100.00
23341;BME280;12239;53.404;23.492;2024-03-02T11:43:51;77210.98;;;-147.78;100.00
23341;BME280;12239;53.404;23.492;2024-03-02T11:46:23;77211.40;;;-147.78;100.00
23341;BME280;12239;53.404;23.492;2024-03-02T11:48:55;77210.58;;;-147.78;100.00
23341;BME280;12239;53.404;23.492;2024-03-02T11:51:24;77199.52;;;-147.78;100.00
23341;BME280;12239;53.404;23.492;2024-03-02T11:53:54;77195.41;;;-147.78;100.00
23341;BME280;12239;53.404;23.492;2024-03-02T11:56:25;77187.63;;;-147.78;100.00
23341;BME280;12239;53.404;23.492;2024-03-02T11:58:55;77177.37;;;-147.78;100.00
23341;BME280;12239;53.404;23.492;2024-03-02T12:01:26;77173.68;;;-147.78;100.00
23341;BME280;12239;53.404;23.492;2024-03-02T12:03:59;77166.30;;;-147.78;100.00
23341;BME280;12239;53.404;23.492;2024-03-02T12:06:29;77167.94;;;-147.78;100.00
23341;BME280;12239;53.404;23.492;2024-03-02T12:09:19;77168.34;;;-147.78;100.00
23341;BME280;12239;53.404;23.492;2024-03-02T12:11:49;77170.80;;;-147.78;100.00
23341;BME280;12239;53.404;23.492;2024-03-02T12:14:30;77172.03;;;-147.78;100.00
23341;BME280;12239;53.404;23.492;2024-03-02T12:17:08;77164.23;;;-147.78;100.00
23341;BME280;12239;53.404;23.492;2024-03-02T12:19:48;77163.02;;;-147.78;100.00
23341;BME280;12239;53.404;23.492;2024-03-02T12:25:23;77143.33;;;-147.78;100.00
23341;BME280;12239;53.404;23.492;2024-03-02T12:27:53;77138.82;;;-147.78;100.00
23341;BME280;12239;53.404;23.492;2024-03-02T12:30:23;77139.23;;;-147.78;100.00
23341;BME280;12239;53.404;23.492;2024-03-02T12:32:53;77138.82;;;-147.78;100.00
23341;BME280;12239;53.404;23.492;2024-03-02T12:35:23;77138.00;;;-147.78;100.00
23341;BME280;12239;53.404;23.492;2024-03-02T12:37:53;77138.82;;;-147.78;100.00
23341;BME280;12239;53.404;23.492;2024-03-02T12:40:23;77143.33;;;-147.78;100.00